Niel, Belgium
Current Conditions -  °F | °C
As of 4:50 AM on Sunday 25 Jan 2015 (Local Time) from EBAW Reporting Station
Clear Clear  
Wind Chill: 36°   Ceiling: Unl
Heat Index: 36°   Visibility: 6mi
Dew Point: 32°   Wind: 2mph
Humidity: 87%   Direction: 250°WSW
Pressure: 30.39"   Gusts: NA
Location:  51.11°N, 4.33°E
Report Text: EBAW 250350Z AUTO 25002KT CAVOK 02/M00 Q1029
Loading
Personal Weather Stations






























Interactive Weather Map New forecast layout! Learn more

10-Day Weather Forecast

Advertisements
Track Severe Weather on mobile